Rice, WA

10:59 PM PST on December 20, 2014 (GMT -0800)
KWAKETTL2 | Change Station
CLOSE
Current Station
Personal Weather Station
Location: Kettle Falls, WA
Elevation: 1900 ft
Nearby Weather Stations

Elev 1900 ft 48.49 °N, 118.16 °W | Updated 27 seconds ago

Overcast
Overcast
34.3 °F
Feels Like 34 °F
N
0.0
Wind Variable Wind from SSE
Gusts 0.0 mph

Today
High -- | Low -- °F
--% Chance of Precip.
Yesterday
High -- | Low -- °F
Precip. -- in
7:40 AM 3:59 PM
Waning Crescent, 1% visible
Pressure 29.52 in
Visibility 10.0 miles
Clouds Overcast 400 ft
Windchill 34 °F
Dew Point 34 °F
Humidity 98%
Rainfall 0.45 in
Snow Depth Not available.
UV 0 out of 12
Pollen .10 out of 12
Air Quality Not available.
Flu Activity Not available.
METAR KDEW 210653Z AUTO 16012KT 10SM OVC004 05/04 A2949 RMK AO2 RAE39 SLP997 P0002 T00500044

More Conditions Fewer Conditions

Pressure 29.52 in
Visibility 10.0 miles
Clouds Overcast 400 ft
Windchill 34 °F
Dew Point 34 °F
Humidity 98%
Rainfall 0.45 in
Snow Depth Not available.
UV 0 out of 12
Pollen .10 out of 12
Air Quality Not available.
Flu Activity Not available.
METAR KDEW 210653Z AUTO 16012KT 10SM OVC004 05/04 A2949 RMK AO2 RAE39 SLP997 P0002 T00500044

More Conditions Fewer Conditions

10-Day Weather Forecast

Almanac

Astronomy

Dec. 20, 2014 Rise Set
Actual Time
Civil Twilight
Nautical Twilight
Astronomical Twilight
Moon
Length of Visible Light
Length of Day
Tomorrow will be .
, % of the Moon is Illuminated

Today's Extremes

State Highs State Lows

Community

WunderPhotos

Upload Photos

1,779,360 photos uploaded!

WunderBlogs® & News

Nearby

Air Quality

  Air Quality AQ Index Pollutant
Not available.

Snow Depth

Station Depth Elevation

Earthquake Activity

City Distance Mag. Time & Date
Minimum magnitude displayed is 2.5.

Coastal Water Temperatures

Place Temperature

Nearby Weather Stations